createdAt,value
2024-01-12T00:01:00.000Z,10.93
2024-01-12T00:03:29.402Z,10.99
2024-01-12T00:05:57.526Z,10.97
2024-01-12T00:08:25.652Z,11.01
2024-01-12T00:10:53.692Z,10.99
2024-01-12T00:13:21.720Z,11.02
2024-01-12T00:15:49.759Z,11.00
2024-01-12T00:18:17.983Z,10.97
2024-01-12T00:20:47.668Z,10.97
2024-01-12T00:23:15.899Z,10.99
2024-01-12T00:25:43.938Z,10.66
2024-01-12T00:28:14.613Z,10.99
2024-01-12T00:30:46.390Z,10.93
2024-01-12T00:33:14.857Z,11.03
2024-01-12T00:35:43.044Z,11.06
2024-01-12T00:38:12.796Z,11.03
2024-01-12T00:40:40.914Z,11.03
2024-01-12T00:43:09.716Z,10.92
2024-01-12T00:45:37.764Z,11.01
2024-01-12T00:48:07.503Z,11.02
2024-01-12T00:50:35.713Z,11.01
2024-01-12T00:53:03.821Z,11.01
2024-01-12T00:55:34.290Z,10.99
2024-01-12T00:58:02.339Z,10.97
2024-01-12T01:00:31.952Z,10.97
2024-01-12T01:03:03.060Z,10.95
2024-01-12T01:05:31.193Z,10.94
2024-01-12T01:07:59.853Z,10.92
2024-01-12T01:10:27.907Z,10.90
2024-01-12T01:12:57.288Z,10.91
2024-01-12T01:15:25.378Z,10.90
2024-01-12T01:17:54.066Z,10.88
2024-01-12T01:20:23.073Z,10.85
2024-01-12T01:22:51.186Z,10.88
2024-01-12T01:25:19.353Z,10.93
2024-01-12T01:27:47.399Z,10.97
2024-01-12T01:30:17.100Z,10.85
2024-01-12T01:32:45.226Z,10.98
2024-01-12T01:35:13.421Z,10.98
2024-01-12T01:37:41.586Z,10.98
2024-01-12T01:40:10.422Z,10.94
2024-01-12T01:42:38.500Z,10.88
2024-01-12T01:45:07.339Z,10.91
2024-01-12T01:47:36.936Z,10.89
2024-01-12T01:50:05.359Z,10.69
2024-01-12T01:52:33.504Z,10.80
2024-01-12T01:55:01.611Z,10.81
2024-01-12T01:57:29.643Z,10.82
2024-01-12T01:59:58.092Z,10.81
2024-01-12T02:02:26.379Z,10.77
2024-01-12T02:04:56.087Z,10.76
2024-01-12T02:07:24.163Z,10.73
2024-01-12T02:09:52.350Z,10.72
2024-01-12T02:12:20.476Z,10.73
2024-01-12T02:14:48.766Z,10.68
2024-01-12T02:17:16.894Z,10.75
2024-01-12T02:19:44.987Z,10.79
2024-01-12T02:22:14.563Z,10.63
2024-01-12T02:24:42.694Z,10.75
2024-01-12T02:27:10.788Z,10.75
2024-01-12T02:29:38.860Z,10.73
2024-01-12T02:32:06.968Z,10.70
2024-01-12T02:34:35.045Z,10.73
2024-01-12T02:37:03.107Z,10.74
2024-01-12T02:39:32.575Z,10.71
2024-01-12T02:42:00.641Z,10.71
2024-01-12T02:44:28.781Z,10.75
2024-01-12T02:46:56.830Z,10.76
2024-01-12T02:49:24.908Z,10.81
2024-01-12T02:51:52.984Z,10.76
2024-01-12T02:54:21.060Z,10.81
2024-01-12T02:56:50.741Z,10.84
2024-01-12T02:59:18.815Z,10.82
2024-01-12T03:01:46.907Z,10.80
2024-01-12T03:04:15.140Z,10.62
2024-01-12T03:06:43.424Z,10.75
2024-01-12T03:09:11.655Z,10.74
2024-01-12T03:11:39.868Z,10.74
2024-01-12T03:14:09.302Z,10.72
2024-01-12T03:16:37.346Z,10.74
2024-01-12T03:19:05.705Z,10.71
2024-01-12T03:21:34.244Z,10.72
2024-01-12T03:24:02.368Z,10.73
2024-01-12T03:26:30.521Z,10.72
2024-01-12T03:28:58.572Z,10.67
2024-01-12T03:31:28.015Z,10.78
2024-01-12T03:33:56.191Z,10.74
2024-01-12T03:36:24.712Z,10.74
2024-01-12T03:38:54.503Z,10.63
2024-01-12T03:41:22.593Z,10.71
2024-01-12T03:43:50.698Z,10.38
2024-01-12T03:46:18.700Z,10.66
2024-01-12T03:48:48.368Z,10.65
2024-01-12T03:51:16.522Z,10.62
2024-01-12T03:53:44.634Z,10.68
2024-01-12T03:56:12.674Z,10.67
2024-01-12T03:58:41.125Z,10.71
2024-01-12T04:01:09.457Z,10.71
2024-01-12T04:03:37.537Z,10.57
2024-01-12T04:06:11.058Z,10.62
2024-01-12T04:08:39.302Z,10.64
2024-01-12T04:11:08.193Z,10.63
2024-01-12T04:13:36.299Z,10.60
2024-01-12T04:16:04.398Z,10.62
2024-01-12T04:18:32.621Z,10.56
2024-01-12T04:21:01.987Z,10.62
2024-01-12T04:23:31.563Z,10.54
2024-01-12T04:25:59.779Z,10.53
2024-01-12T04:28:27.883Z,10.63
2024-01-12T04:30:56.147Z,10.62
2024-01-12T04:33:24.323Z,10.61
2024-01-12T04:35:52.951Z,10.60
2024-01-12T04:38:21.178Z,10.60
2024-01-12T04:40:50.719Z,10.54
2024-01-12T04:43:18.750Z,10.54
2024-01-12T04:45:46.805Z,10.53
2024-01-12T04:48:14.914Z,10.60
2024-01-12T04:50:43.003Z,10.62
2024-01-12T04:53:11.190Z,10.57
2024-01-12T04:55:39.243Z,10.58
2024-01-12T04:58:08.657Z,10.65
2024-01-12T05:00:36.751Z,10.65
2024-01-12T05:03:05.310Z,10.63
2024-01-12T05:05:33.896Z,10.63
2024-01-12T05:08:02.023Z,10.63
2024-01-12T05:10:30.046Z,10.65
2024-01-12T05:12:58.099Z,10.69
2024-01-12T05:15:27.550Z,10.67
2024-01-12T05:17:55.802Z,10.72
2024-01-12T05:20:24.042Z,10.75
2024-01-12T05:22:52.085Z,10.68
2024-01-12T05:25:20.107Z,10.71
2024-01-12T05:27:48.191Z,10.65
2024-01-12T05:30:16.416Z,10.74
2024-01-12T05:32:46.582Z,10.76
2024-01-12T05:35:16.035Z,10.70
2024-01-12T05:37:44.650Z,10.74
2024-01-12T05:40:13.124Z,10.72
2024-01-12T05:42:41.250Z,10.73
2024-01-12T05:45:09.990Z,10.62
2024-01-12T05:47:38.560Z,10.65
2024-01-12T05:50:09.451Z,10.64
2024-01-12T05:52:37.604Z,10.67
2024-01-12T05:55:06.185Z,10.67
2024-01-12T05:57:35.948Z,10.67
2024-01-12T06:00:05.600Z,10.70
2024-01-12T06:02:33.882Z,10.76
2024-01-12T06:05:02.042Z,10.77
2024-01-12T06:07:31.465Z,10.74
2024-01-12T06:09:59.515Z,10.77
2024-01-12T06:12:27.676Z,10.74
2024-01-12T06:14:55.849Z,10.69
2024-01-12T06:17:23.932Z,10.68
2024-01-12T06:19:52.100Z,10.72
2024-01-12T06:22:20.177Z,10.65
2024-01-12T06:24:49.618Z,10.66
2024-01-12T06:27:17.886Z,10.66
2024-01-12T06:29:45.971Z,10.53
2024-01-12T06:32:14.411Z,10.68
2024-01-12T06:34:42.802Z,10.67
2024-01-12T06:37:10.853Z,10.62
2024-01-12T06:39:40.584Z,10.62
2024-01-12T06:42:10.311Z,10.66
2024-01-12T06:44:41.220Z,10.68
2024-01-12T06:47:09.585Z,10.66
2024-01-12T06:49:37.843Z,10.70
2024-01-12T06:52:06.801Z,10.65
2024-01-12T06:54:34.830Z,10.74
2024-01-12T06:57:02.963Z,10.69
2024-01-12T06:59:32.912Z,10.67
2024-01-12T07:02:01.651Z,10.78
2024-01-12T07:04:29.748Z,10.75
2024-01-12T07:06:58.084Z,10.76
2024-01-12T07:09:26.526Z,10.64
2024-01-12T07:11:54.972Z,10.52
2024-01-12T07:14:23.170Z,10.68
2024-01-12T07:16:52.607Z,10.69
2024-01-12T07:19:20.832Z,10.69
2024-01-12T07:21:49.032Z,10.70
2024-01-12T07:24:17.141Z,10.67
2024-01-12T07:26:45.213Z,10.69
2024-01-12T07:29:14.584Z,10.48
2024-01-12T07:31:42.627Z,10.74
2024-01-12T07:34:12.357Z,10.74
2024-01-12T07:36:40.576Z,10.76
2024-01-12T07:39:09.783Z,10.71
2024-01-12T07:41:37.923Z,10.84
2024-01-12T07:44:08.624Z,10.87
2024-01-12T07:46:37.986Z,10.89
2024-01-12T07:49:06.141Z,10.82
2024-01-12T07:51:36.082Z,10.94
2024-01-12T07:54:04.223Z,10.92
2024-01-12T07:56:32.278Z,10.91
2024-01-12T07:59:00.496Z,10.84
2024-01-12T08:01:28.474Z,10.89
2024-01-12T08:03:56.843Z,10.89
2024-01-12T08:06:24.980Z,10.90
2024-01-12T08:08:54.562Z,10.84
2024-01-12T08:11:27.284Z,10.85
2024-01-12T08:14:03.608Z,10.77
2024-01-12T08:16:32.488Z,10.81
2024-01-12T08:19:01.314Z,10.57
2024-01-12T08:21:37.685Z,10.92
2024-01-12T08:24:14.905Z,10.94
2024-01-12T08:26:43.084Z,10.92
2024-01-12T08:29:11.168Z,10.98
2024-01-12T08:31:39.213Z,10.90
2024-01-12T08:34:07.538Z,10.92
2024-01-12T08:36:35.746Z,11.04
2024-01-12T08:39:04.033Z,11.05
2024-01-12T08:41:33.834Z,11.05
2024-01-12T08:44:02.174Z,11.05
2024-01-12T08:46:30.216Z,10.94
2024-01-12T08:49:00.128Z,11.01
2024-01-12T08:51:28.279Z,10.94
2024-01-12T08:53:56.724Z,11.02
2024-01-12T08:56:24.856Z,11.02
2024-01-12T08:58:54.288Z,11.05
2024-01-12T09:01:22.340Z,11.01
2024-01-12T09:03:53.701Z,10.99
2024-01-12T09:06:25.024Z,10.95
2024-01-12T09:08:53.438Z,10.93
2024-01-12T09:11:21.564Z,10.97
2024-01-12T09:13:50.871Z,10.98
2024-01-12T09:16:20.323Z,10.97
2024-01-12T09:18:49.888Z,11.01
2024-01-12T09:21:18.202Z,11.01
2024-01-12T09:23:46.338Z,10.95
2024-01-12T09:26:14.468Z,11.07
2024-01-12T09:28:42.673Z,11.12
2024-01-12T09:31:11.130Z,10.21
2024-01-12T09:33:41.034Z,11.22
2024-01-12T09:36:10.158Z,11.25
2024-01-12T09:38:38.311Z,11.33
2024-01-12T09:41:06.751Z,11.02
2024-01-12T09:43:34.799Z,11.29
2024-01-12T09:46:03.265Z,11.25
2024-01-12T09:48:31.967Z,11.18
2024-01-12T09:51:01.611Z,11.12
2024-01-12T09:53:30.037Z,11.16
2024-01-12T09:56:05.931Z,11.18
2024-01-12T09:58:36.080Z,10.99
2024-01-12T10:01:04.186Z,11.21
2024-01-12T10:03:32.281Z,11.24
2024-01-12T10:06:01.820Z,11.15
2024-01-12T10:08:37.304Z,11.24
2024-01-12T10:11:05.805Z,11.31
2024-01-12T10:13:33.903Z,11.33
2024-01-12T10:16:02.908Z,11.38
2024-01-12T10:18:33.754Z,11.38
2024-01-12T10:21:03.943Z,11.46
2024-01-12T10:23:33.026Z,11.42
2024-01-12T10:26:01.631Z,11.41
2024-01-12T10:28:30.701Z,11.41
2024-01-12T10:30:59.038Z,11.40
2024-01-12T10:33:27.412Z,11.46
2024-01-12T10:35:59.574Z,11.48
2024-01-12T10:38:28.985Z,11.48
2024-01-12T10:40:57.163Z,11.58
2024-01-12T10:43:25.986Z,11.53
2024-01-12T10:45:55.245Z,11.70
2024-01-12T10:48:23.417Z,11.74
2024-01-12T10:50:54.629Z,11.67
2024-01-12T10:53:23.623Z,11.68
2024-01-12T10:55:57.087Z,11.66
2024-01-12T10:58:25.138Z,11.43
2024-01-12T11:00:54.021Z,11.62
2024-01-12T11:03:22.244Z,11.77
2024-01-12T11:05:50.595Z,11.65
2024-01-12T11:08:18.908Z,11.80
2024-01-12T11:10:49.068Z,11.34
2024-01-12T11:13:18.977Z,11.92
2024-01-12T11:15:50.838Z,11.70
2024-01-12T11:18:19.168Z,11.72
2024-01-12T11:20:47.233Z,11.96
2024-01-12T11:23:15.470Z,11.98
2024-01-12T11:25:44.728Z,12.03
2024-01-12T11:28:12.848Z,12.01
2024-01-12T11:30:43.938Z,11.72
2024-01-12T11:33:12.238Z,12.10
2024-01-12T11:35:41.218Z,12.10
2024-01-12T11:38:10.745Z,12.13
2024-01-12T11:40:39.382Z,12.16
2024-01-12T11:43:08.067Z,12.07
2024-01-12T11:45:41.068Z,12.00
2024-01-12T11:48:11.097Z,12.03
2024-01-12T11:50:39.374Z,11.63
2024-01-12T11:53:10.111Z,12.14
2024-01-12T11:55:38.820Z,12.19
2024-01-12T11:58:07.195Z,12.22
2024-01-12T12:00:35.432Z,12.15
2024-01-12T12:03:03.579Z,12.23
2024-01-12T12:05:33.379Z,12.20
2024-01-12T12:08:01.532Z,12.21
2024-01-12T12:10:37.412Z,11.89
2024-01-12T12:13:11.741Z,12.20
2024-01-12T12:15:39.813Z,12.20
2024-01-12T12:18:08.896Z,12.13
2024-01-12T12:20:38.628Z,12.07
2024-01-12T12:23:08.468Z,12.09
2024-01-12T12:25:36.664Z,12.10
2024-01-12T12:28:05.062Z,12.10
2024-01-12T12:30:33.368Z,11.90
2024-01-12T12:33:01.957Z,12.12
2024-01-12T12:35:30.184Z,12.09
2024-01-12T12:38:02.688Z,11.87
2024-01-12T12:40:30.932Z,12.07
2024-01-12T12:42:59.944Z,12.08
2024-01-12T12:45:28.696Z,11.95
2024-01-12T12:47:56.853Z,12.15
2024-01-12T12:50:25.705Z,12.18
2024-01-12T12:52:54.110Z,12.17
2024-01-12T12:55:23.595Z,12.20
2024-01-12T12:57:52.268Z,12.20
2024-01-12T13:00:20.539Z,11.28
2024-01-12T13:02:49.154Z,12.06
2024-01-12T13:05:19.149Z,12.21
2024-01-12T13:07:47.284Z,12.20
2024-01-12T13:10:15.425Z,12.20
2024-01-12T13:12:44.895Z,11.93
2024-01-12T13:15:13.202Z,11.84
2024-01-12T13:17:42.066Z,10.85
2024-01-12T13:20:13.193Z,12.13
2024-01-12T13:22:41.357Z,12.13
2024-01-12T13:25:09.977Z,12.04
2024-01-12T13:27:38.598Z,12.17
2024-01-12T13:30:10.876Z,11.39
2024-01-12T13:32:39.345Z,11.95
2024-01-12T13:35:08.957Z,12.05
2024-01-12T13:37:37.214Z,12.04
2024-01-12T13:40:05.776Z,12.02
2024-01-12T13:42:34.252Z,12.09
2024-01-12T13:45:03.036Z,12.10
2024-01-12T13:47:33.022Z,12.12
2024-01-12T13:50:01.230Z,12.07
2024-01-12T13:52:29.270Z,12.11
2024-01-12T13:54:57.332Z,12.09
2024-01-12T13:57:25.412Z,12.32
2024-01-12T13:59:53.477Z,12.36
2024-01-12T14:02:22.415Z,12.40
2024-01-12T14:05:01.095Z,12.32
2024-01-12T14:07:38.656Z,12.25
2024-01-12T14:10:07.491Z,12.19
2024-01-12T14:12:35.584Z,12.14
2024-01-12T14:15:04.060Z,12.12
2024-01-12T14:17:32.474Z,12.03
2024-01-12T14:20:02.470Z,12.04
2024-01-12T14:22:30.592Z,11.99
2024-01-12T14:24:58.675Z,11.88
2024-01-12T14:27:26.891Z,11.95
2024-01-12T14:29:56.012Z,11.97
2024-01-12T14:32:24.556Z,11.92
2024-01-12T14:34:52.774Z,11.93
2024-01-12T14:37:23.701Z,11.92
2024-01-12T14:39:52.147Z,11.90
2024-01-12T14:42:20.240Z,11.90
2024-01-12T14:44:48.537Z,11.87
2024-01-12T14:47:18.021Z,11.81
2024-01-12T14:49:46.306Z,11.79
2024-01-12T14:52:14.501Z,11.77
2024-01-12T14:54:45.532Z,11.78
2024-01-12T14:57:13.642Z,11.75
2024-01-12T14:59:41.750Z,11.77
2024-01-12T15:02:10.240Z,11.70
2024-01-12T15:04:38.463Z,11.76
2024-01-12T15:07:08.888Z,11.67
2024-01-12T15:09:36.968Z,11.58
2024-01-12T15:12:07.823Z,11.55
2024-01-12T15:14:36.458Z,11.50
2024-01-12T15:17:04.622Z,11.45
2024-01-12T15:19:33.125Z,11.44
2024-01-12T15:22:01.427Z,10.92
2024-01-12T15:24:29.485Z,10.58
2024-01-12T15:26:57.678Z,11.43
2024-01-12T15:29:27.389Z,11.41
2024-01-12T15:31:55.444Z,11.38
2024-01-12T15:34:24.110Z,10.89
2024-01-12T15:36:52.351Z,11.28
2024-01-12T15:39:20.349Z,11.25
2024-01-12T15:41:51.151Z,11.24
2024-01-12T15:44:20.432Z,11.19
2024-01-12T15:46:50.810Z,11.02
2024-01-12T15:49:19.348Z,11.06
2024-01-12T15:51:47.686Z,10.92
2024-01-12T15:54:15.841Z,10.92
2024-01-12T15:56:43.912Z,11.05
2024-01-12T15:59:16.248Z,11.04
2024-01-12T16:01:45.148Z,10.91
2024-01-12T16:04:15.248Z,11.03
2024-01-12T16:06:47.502Z,11.02
2024-01-12T16:09:15.837Z,11.01
2024-01-12T16:11:44.063Z,11.04
2024-01-12T16:14:12.570Z,11.03
2024-01-12T16:16:43.480Z,10.83
2024-01-12T16:19:15.503Z,11.00
2024-01-12T16:21:45.703Z,10.99
2024-01-12T16:24:13.876Z,10.97
2024-01-12T16:26:42.253Z,10.89
2024-01-12T16:29:10.306Z,10.94
2024-01-12T16:31:38.472Z,10.94
2024-01-12T16:34:07.160Z,10.89
2024-01-12T16:36:35.427Z,10.96
2024-01-12T16:39:05.324Z,10.98
2024-01-12T16:41:33.609Z,10.98
2024-01-12T16:44:01.737Z,10.94
2024-01-12T16:46:28.742Z,10.83
2024-01-12T16:48:57.110Z,10.88
2024-01-12T16:51:25.404Z,10.79
2024-01-12T16:53:53.566Z,10.83
2024-01-12T16:56:23.209Z,10.82
2024-01-12T16:58:51.376Z,10.64
2024-01-12T17:01:22.000Z,10.60
2024-01-12T17:03:51.119Z,10.57
2024-01-12T17:06:19.294Z,10.56
2024-01-12T17:08:47.484Z,10.80
2024-01-12T17:11:15.601Z,10.52
2024-01-12T17:13:45.319Z,10.71
2024-01-12T17:16:13.385Z,10.78
2024-01-12T17:18:42.226Z,10.80
2024-01-12T17:21:10.704Z,10.77
2024-01-12T17:23:39.026Z,10.80
2024-01-12T17:26:11.581Z,10.79
2024-01-12T17:28:39.793Z,10.48
2024-01-12T17:31:09.296Z,10.35
2024-01-12T17:33:37.633Z,10.75
2024-01-12T17:36:06.316Z,10.79
2024-01-12T17:38:34.457Z,10.78
2024-01-12T17:41:04.393Z,10.79
2024-01-12T17:43:32.604Z,10.80
2024-01-12T17:46:00.651Z,10.54
2024-01-12T17:48:31.298Z,10.75
2024-01-12T17:50:59.562Z,10.74
2024-01-12T17:53:27.680Z,10.81
2024-01-12T17:55:55.798Z,10.67
2024-01-12T17:58:23.926Z,10.57
2024-01-12T18:00:52.917Z,10.75
2024-01-12T18:03:21.160Z,10.74
2024-01-12T18:05:50.718Z,10.55
2024-01-12T18:08:18.858Z,10.49
2024-01-12T18:10:46.877Z,10.62
2024-01-12T18:13:14.960Z,10.60
2024-01-12T18:15:44.090Z,10.72
2024-01-12T18:18:12.258Z,10.73
2024-01-12T18:20:40.471Z,10.69
2024-01-12T18:23:10.514Z,10.69
2024-01-12T18:25:38.708Z,10.62
2024-01-12T18:28:06.976Z,10.60
2024-01-12T18:30:35.228Z,10.65
2024-01-12T18:33:04.781Z,10.65
2024-01-12T18:35:32.997Z,9.90
2024-01-12T18:38:01.072Z,10.61
2024-01-12T18:40:31.334Z,10.58
2024-01-12T18:42:59.381Z,10.60
2024-01-12T18:45:27.646Z,10.31
2024-01-12T18:47:55.757Z,10.61
2024-01-12T18:50:23.925Z,10.61
2024-01-12T18:52:51.988Z,10.37
2024-01-12T18:55:19.981Z,10.60
2024-01-12T18:57:51.085Z,10.57
2024-01-12T19:00:19.736Z,10.51
2024-01-12T19:02:47.818Z,9.14
2024-01-12T19:05:16.156Z,10.52
2024-01-12T19:07:44.204Z,10.41
2024-01-12T19:10:12.214Z,10.20
2024-01-12T19:12:40.247Z,10.54
2024-01-12T19:15:10.607Z,10.55
2024-01-12T19:17:38.810Z,10.32
2024-01-12T19:20:10.815Z,10.39
2024-01-12T19:22:40.674Z,10.56
2024-01-12T19:25:09.214Z,10.58
2024-01-12T19:27:37.258Z,10.58
2024-01-12T19:30:09.050Z,10.60
2024-01-12T19:32:39.288Z,10.50
2024-01-12T19:35:08.417Z,10.17
2024-01-12T19:37:37.147Z,10.59
2024-01-12T19:40:05.900Z,10.40
2024-01-12T19:42:34.368Z,10.10
2024-01-12T19:45:02.611Z,10.32
2024-01-12T19:47:31.754Z,10.55
2024-01-12T19:50:01.418Z,10.32
2024-01-12T19:52:29.593Z,10.30
2024-01-12T19:54:58.085Z,10.38
2024-01-12T19:57:26.247Z,10.55
2024-01-12T19:59:54.485Z,10.57
2024-01-12T20:02:23.934Z,10.57
2024-01-12T20:04:52.242Z,10.57
2024-01-12T20:07:22.214Z,10.61
2024-01-12T20:09:50.472Z,10.33
2024-01-12T20:12:18.588Z,10.52
2024-01-12T20:14:46.743Z,10.65
2024-01-12T20:17:14.837Z,10.64
2024-01-12T20:19:43.006Z,10.56
2024-01-12T20:22:11.242Z,10.68
2024-01-12T20:24:41.338Z,10.69
2024-01-12T20:27:09.508Z,10.69
2024-01-12T20:29:37.625Z,10.69
2024-01-12T20:32:06.131Z,10.64
2024-01-12T20:34:34.279Z,10.56
2024-01-12T20:37:02.862Z,10.70
2024-01-12T20:39:31.042Z,10.68
2024-01-12T20:42:00.573Z,10.41
2024-01-12T20:44:28.642Z,10.67
2024-01-12T20:46:56.692Z,10.54
2024-01-12T20:49:24.867Z,10.67
2024-01-12T20:51:52.950Z,10.56
2024-01-12T20:54:21.217Z,10.68
2024-01-12T20:56:49.357Z,10.68
2024-01-12T20:59:18.894Z,10.47
2024-01-12T21:01:47.040Z,10.15
2024-01-12T21:04:15.254Z,10.36
2024-01-12T21:06:46.732Z,10.18
2024-01-12T21:09:16.137Z,10.61
2024-01-12T21:11:44.263Z,10.62
2024-01-12T21:14:12.544Z,10.61
2024-01-12T21:16:42.059Z,10.52
2024-01-12T21:19:10.276Z,10.62
2024-01-12T21:21:38.415Z,10.62
2024-01-12T21:24:07.122Z,10.38
2024-01-12T21:26:35.475Z,10.53
2024-01-12T21:29:03.518Z,10.56
2024-01-12T21:31:31.653Z,10.65
2024-01-12T21:34:01.233Z,10.53
2024-01-12T21:36:29.433Z,10.56
2024-01-12T21:38:58.307Z,10.57
2024-01-12T21:41:26.864Z,10.61
2024-01-12T21:43:54.976Z,10.60
2024-01-12T21:46:23.038Z,10.57
2024-01-12T21:48:51.299Z,10.47
2024-01-12T21:51:20.989Z,10.50
2024-01-12T21:53:49.074Z,10.48
2024-01-12T21:56:17.128Z,10.45
2024-01-12T21:58:46.133Z,10.27
2024-01-12T22:01:15.808Z,10.07
2024-01-12T22:03:44.017Z,10.41
2024-01-12T22:06:12.250Z,10.49
2024-01-12T22:08:41.921Z,10.51
2024-01-12T22:11:10.161Z,10.53
2024-01-12T22:13:38.193Z,10.54
2024-01-12T22:16:06.583Z,10.56
2024-01-12T22:18:34.939Z,10.53
2024-01-12T22:21:03.092Z,10.53
2024-01-12T22:23:31.305Z,10.22
2024-01-12T22:26:00.775Z,10.57
2024-01-12T22:28:28.817Z,10.50
2024-01-12T22:30:56.976Z,10.51
2024-01-12T22:33:25.907Z,10.43
2024-01-12T22:35:54.074Z,10.52
2024-01-12T22:38:22.237Z,10.32
2024-01-12T22:40:50.300Z,10.37
2024-01-12T22:43:19.791Z,10.48
2024-01-12T22:45:47.956Z,9.85
2024-01-12T22:48:16.189Z,10.42
2024-01-12T22:50:44.261Z,10.36
2024-01-12T22:53:12.497Z,10.37
2024-01-12T22:55:40.591Z,10.32
2024-01-12T22:58:08.672Z,10.30
2024-01-12T23:00:41.784Z,10.15
2024-01-12T23:03:09.922Z,10.27
2024-01-12T23:05:40.241Z,9.46
2024-01-12T23:08:09.121Z,10.05
2024-01-12T23:10:37.328Z,10.30
2024-01-12T23:13:05.679Z,10.31
2024-01-12T23:15:33.961Z,10.30
2024-01-12T23:18:03.608Z,9.86
2024-01-12T23:20:31.812Z,10.20
2024-01-12T23:23:00.144Z,10.31
2024-01-12T23:25:28.669Z,10.31
2024-01-12T23:27:56.781Z,10.31
2024-01-12T23:30:25.167Z,10.25
2024-01-12T23:32:53.376Z,10.05
2024-01-12T23:35:23.519Z,10.18
2024-01-12T23:37:51.672Z,10.32
2024-01-12T23:40:19.689Z,10.23
2024-01-12T23:42:47.914Z,10.22
2024-01-12T23:45:16.143Z,10.18
2024-01-12T23:47:44.616Z,10.31
2024-01-12T23:50:12.870Z,10.24
2024-01-12T23:52:42.372Z,10.22
2024-01-12T23:55:10.719Z,10.28
2024-01-12T23:57:38.744Z,10.20
